createdAt,value
2019-02-14T00:02:23.566Z,28.67
2019-02-14T00:07:24.922Z,28.85
2019-02-14T00:12:26.528Z,26.90
2019-02-14T00:17:28.311Z,28.77
2019-02-14T00:22:29.647Z,27.42
2019-02-14T00:27:31.102Z,26.12
2019-02-14T00:32:32.495Z,29.00
2019-02-14T00:37:34.036Z,28.23
2019-02-14T00:42:35.482Z,27.50
2019-02-14T00:47:37.122Z,28.95
2019-02-14T00:52:38.655Z,27.82
2019-02-14T00:57:40.053Z,27.82
2019-02-14T01:02:41.507Z,29.30
2019-02-14T01:07:43.107Z,29.65
2019-02-14T01:12:44.506Z,28.47
2019-02-14T01:17:45.842Z,27.67
2019-02-14T01:22:47.260Z,31.97
2019-02-14T01:27:48.672Z,32.17
2019-02-14T01:32:50.065Z,30.77
2019-02-14T01:37:53.073Z,31.73
2019-02-14T01:42:54.518Z,29.15
2019-02-14T01:47:55.815Z,32.20
2019-02-14T01:52:57.265Z,28.20
2019-02-14T01:57:58.606Z,29.72
2019-02-14T02:03:00.042Z,28.50
2019-02-14T02:08:01.447Z,28.35
2019-02-14T02:13:03.385Z,28.87
2019-02-14T02:18:05.095Z,32.50
2019-02-14T02:23:06.540Z,29.02
2019-02-14T02:28:08.004Z,27.13
2019-02-14T02:33:09.383Z,31.55
2019-02-14T02:38:29.246Z,30.40
2019-02-14T02:43:30.560Z,33.53
2019-02-14T02:48:32.021Z,37.25
2019-02-14T02:53:33.598Z,32.80
2019-02-14T02:58:34.937Z,30.92
2019-02-14T03:03:36.410Z,33.30
2019-02-14T03:08:37.943Z,31.80
2019-02-14T03:13:39.467Z,32.45
2019-02-14T03:18:40.799Z,35.10
2019-02-14T03:23:42.090Z,33.20
2019-02-14T03:28:45.017Z,33.63
2019-02-14T03:33:46.598Z,32.53
2019-02-14T03:38:48.004Z,33.45
2019-02-14T03:43:49.335Z,34.25
2019-02-14T03:48:50.748Z,35.63
2019-02-14T03:53:52.175Z,30.05
2019-02-14T03:58:53.553Z,30.62
2019-02-14T04:03:54.872Z,31.02
2019-02-14T04:08:56.397Z,28.42
2019-02-14T04:13:57.720Z,28.75
2019-02-14T04:19:00.107Z,28.42
2019-02-14T04:24:01.515Z,29.77
2019-02-14T04:29:02.874Z,30.40
2019-02-14T04:34:04.178Z,30.50
2019-02-14T04:39:06.200Z,28.73
2019-02-14T04:44:07.521Z,30.72
2019-02-14T04:49:08.820Z,30.62
2019-02-14T04:54:10.240Z,29.30
2019-02-14T04:59:11.785Z,27.77
2019-02-14T05:04:13.217Z,30.37
2019-02-14T05:09:14.656Z,31.55
2019-02-14T05:14:16.046Z,29.05
2019-02-14T05:19:17.590Z,30.52
2019-02-14T05:24:19.107Z,29.52
2019-02-14T05:29:20.428Z,30.00
2019-02-14T05:34:21.871Z,31.97
2019-02-14T05:39:23.166Z,28.73
2019-02-14T05:44:24.504Z,27.85
2019-02-14T05:49:25.799Z,27.50
2019-02-14T05:54:27.327Z,29.02
2019-02-14T05:59:28.605Z,26.90
2019-02-14T06:04:30.077Z,26.30
2019-02-14T06:09:31.422Z,27.22
2019-02-14T06:14:33.251Z,26.23
2019-02-14T06:19:34.523Z,25.95
2019-02-14T06:24:35.851Z,28.98
2019-02-14T06:29:37.240Z,27.45
2019-02-14T06:34:38.533Z,31.30
2019-02-14T06:39:40.311Z,33.85
2019-02-14T06:44:41.654Z,31.45
2019-02-14T06:49:42.967Z,33.38
2019-02-14T06:54:44.363Z,33.33
2019-02-14T06:59:45.797Z,30.75
2019-02-14T07:04:47.190Z,35.58
2019-02-14T07:09:48.598Z,31.05
2019-02-14T07:14:50.043Z,31.35
2019-02-14T07:19:51.973Z,30.45
2019-02-14T07:24:53.250Z,28.47
2019-02-14T07:29:54.718Z,29.45
2019-02-14T07:34:56.029Z,29.98
2019-02-14T07:39:57.472Z,31.37
2019-02-14T07:44:58.800Z,30.02
2019-02-14T07:50:00.392Z,31.00
2019-02-14T07:55:01.924Z,31.40
2019-02-14T08:00:18.637Z,32.35
2019-02-14T08:05:19.933Z,29.50
2019-02-14T08:10:41.877Z,29.60
2019-02-14T08:15:43.327Z,27.93
2019-02-14T08:20:45.134Z,27.45
2019-02-14T08:25:46.691Z,24.60
2019-02-14T08:30:48.106Z,22.50
2019-02-14T08:35:49.625Z,24.80
2019-02-14T08:40:50.940Z,23.70
2019-02-14T08:45:52.270Z,25.52
2019-02-14T08:50:53.746Z,19.40
2019-02-14T08:55:55.141Z,23.20
2019-02-14T09:00:56.592Z,20.72
2019-02-14T09:05:57.993Z,20.32
2019-02-14T09:10:59.617Z,19.95
2019-02-14T09:16:01.369Z,18.80
2019-02-14T09:21:02.769Z,16.42
2019-02-14T09:26:04.259Z,16.40
2019-02-14T09:31:05.710Z,16.90
2019-02-14T09:36:07.082Z,14.65
2019-02-14T09:41:08.566Z,15.23
2019-02-14T09:46:10.079Z,14.35
2019-02-14T09:51:12.147Z,15.05
2019-02-14T09:56:13.572Z,13.22
2019-02-14T10:01:14.885Z,12.50
2019-02-14T10:06:16.259Z,12.95
2019-02-14T10:11:17.802Z,12.85
2019-02-14T10:16:19.118Z,12.45
2019-02-14T10:21:20.768Z,12.03
2019-02-14T10:26:22.150Z,11.80
2019-02-14T10:31:23.557Z,10.78
2019-02-14T10:36:24.877Z,10.88
2019-02-14T10:41:26.351Z,10.75
2019-02-14T10:46:27.905Z,11.03
2019-02-14T10:51:29.366Z,10.88
2019-02-14T10:56:30.661Z,10.70
2019-02-14T11:01:32.341Z,10.10
2019-02-14T11:06:33.890Z,10.15
2019-02-14T11:11:35.441Z,8.75
2019-02-14T11:16:37.108Z,9.98
2019-02-14T11:21:38.549Z,9.53
2019-02-14T11:26:39.975Z,9.93
2019-02-14T11:31:41.445Z,8.88
2019-02-14T11:36:42.708Z,9.88
2019-02-14T11:41:44.093Z,9.50
2019-02-14T11:46:51.291Z,9.30
2019-02-14T11:51:48.665Z,9.15
2019-02-14T11:56:49.942Z,9.33
2019-02-14T12:01:55.363Z,9.28
2019-02-14T12:06:54.914Z,8.28
2019-02-14T12:11:56.253Z,8.43
2019-02-14T12:16:57.693Z,9.08
2019-02-14T12:21:59.858Z,9.78
2019-02-14T12:27:01.394Z,8.18
2019-02-14T12:32:02.931Z,8.60
2019-02-14T12:37:04.426Z,8.63
2019-02-14T12:42:05.889Z,8.23
2019-02-14T12:47:07.192Z,8.80
2019-02-14T12:52:08.797Z,8.68
2019-02-14T12:57:10.318Z,8.98
2019-02-14T13:02:11.815Z,9.35
2019-02-14T13:07:13.196Z,8.85
2019-02-14T13:12:15.001Z,8.73
2019-02-14T13:17:16.546Z,9.60
2019-02-14T13:22:17.904Z,9.95
2019-02-14T13:27:20.270Z,9.08
2019-02-14T13:32:21.853Z,9.10
2019-02-14T13:37:23.175Z,8.00
2019-02-14T13:42:24.488Z,8.93
2019-02-14T13:47:44.323Z,7.12
2019-02-14T13:52:45.854Z,8.20
2019-02-14T13:57:47.254Z,7.45
2019-02-14T14:02:48.630Z,6.60
2019-02-14T14:07:50.025Z,6.28
2019-02-14T14:12:51.450Z,8.50
2019-02-14T14:17:52.758Z,9.33
2019-02-14T14:22:54.258Z,9.35
2019-02-14T14:27:55.584Z,8.48
2019-02-14T14:32:56.941Z,9.10
2019-02-14T14:37:58.259Z,9.10
2019-02-14T14:43:04.571Z,9.70
2019-02-14T14:48:06.549Z,9.63
2019-02-14T14:53:08.548Z,9.08
2019-02-14T14:58:11.550Z,8.68
2019-02-14T15:03:13.228Z,10.00
2019-02-14T15:08:14.647Z,9.70
2019-02-14T15:13:15.962Z,9.03
2019-02-14T15:18:17.306Z,8.30
2019-02-14T15:23:18.636Z,8.60
2019-02-14T15:28:19.960Z,8.18
2019-02-14T15:33:21.495Z,8.40
2019-02-14T15:38:23.297Z,9.15
2019-02-14T15:43:24.651Z,9.10
2019-02-14T15:48:26.105Z,8.40
2019-02-14T15:53:27.482Z,9.18
2019-02-14T15:58:30.627Z,9.88
2019-02-14T16:03:32.323Z,9.70
2019-02-14T16:08:33.760Z,8.98
2019-02-14T16:13:35.145Z,10.18
2019-02-14T16:18:36.617Z,10.68
2019-02-14T16:23:37.919Z,9.98
2019-02-14T16:28:39.890Z,10.98
2019-02-14T16:33:41.477Z,10.38
2019-02-14T16:38:42.906Z,11.05
2019-02-14T16:43:44.255Z,11.53
2019-02-14T16:48:45.529Z,11.38
2019-02-14T16:53:46.842Z,11.00
2019-02-14T16:58:48.460Z,10.95
2019-02-14T17:03:49.808Z,11.30
2019-02-14T17:08:51.786Z,12.18
2019-02-14T17:13:53.447Z,12.35
2019-02-14T17:18:54.919Z,11.33
2019-02-14T17:23:59.051Z,13.05
2019-02-14T17:29:00.535Z,12.53
2019-02-14T17:34:01.992Z,12.75
2019-02-14T17:39:05.576Z,12.33
2019-02-14T17:44:06.995Z,12.28
2019-02-14T17:49:08.323Z,12.33
2019-02-14T17:54:09.880Z,14.25
2019-02-14T17:59:11.734Z,14.90
2019-02-14T18:04:14.927Z,14.47
2019-02-14T18:09:17.754Z,12.40
2019-02-14T18:14:37.632Z,12.05
2019-02-14T18:19:39.470Z,13.15
2019-02-14T18:24:40.868Z,12.82
2019-02-14T18:29:43.227Z,13.32
2019-02-14T18:34:44.665Z,12.47
2019-02-14T18:39:46.702Z,13.22
2019-02-14T18:44:50.083Z,14.03
2019-02-14T18:49:57.349Z,14.23
2019-02-14T18:54:55.809Z,13.40
2019-02-14T18:59:57.305Z,14.43
2019-02-14T19:04:59.821Z,14.40
2019-02-14T19:10:04.839Z,14.25
2019-02-14T19:15:11.203Z,14.30
2019-02-14T19:20:12.712Z,14.25
2019-02-14T19:25:14.115Z,14.20
2019-02-14T19:30:34.583Z,14.38
2019-02-14T19:35:36.036Z,14.70
2019-02-14T19:40:37.511Z,14.73
2019-02-14T19:45:38.905Z,14.65
2019-02-14T19:50:40.303Z,15.80
2019-02-14T19:55:41.688Z,14.07
2019-02-14T20:00:43.115Z,14.40
2019-02-14T20:05:44.640Z,14.28
2019-02-14T20:10:46.042Z,13.88
2019-02-14T20:15:48.936Z,14.20
2019-02-14T20:20:50.421Z,13.70
2019-02-14T20:25:51.961Z,13.15
2019-02-14T20:30:53.486Z,13.72
2019-02-14T20:35:54.877Z,16.93
2019-02-14T20:40:56.507Z,19.80
2019-02-14T20:45:58.003Z,16.77
2019-02-14T20:50:59.674Z,12.93
2019-02-14T20:56:01.141Z,13.18
2019-02-14T21:01:06.819Z,11.90
2019-02-14T21:06:08.588Z,11.63
2019-02-14T21:11:10.183Z,11.08
2019-02-14T21:16:11.618Z,9.98
2019-02-14T21:21:13.044Z,8.70
2019-02-14T21:26:14.485Z,9.88
2019-02-14T21:31:15.919Z,8.08
2019-02-14T21:36:17.253Z,8.80
2019-02-14T21:41:18.772Z,7.58
2019-02-14T21:46:20.285Z,8.90
2019-02-14T21:51:21.926Z,9.28
2019-02-14T21:56:23.265Z,9.58
2019-02-14T22:01:26.313Z,10.00
2019-02-14T22:06:27.939Z,16.95
2019-02-14T22:11:34.084Z,22.52
2019-02-14T22:16:32.731Z,11.80
2019-02-14T22:21:34.018Z,23.80
2019-02-14T22:26:35.365Z,15.55
2019-02-14T22:31:36.660Z,15.25
2019-02-14T22:36:39.085Z,15.65
2019-02-14T22:41:40.674Z,10.98
2019-02-14T22:46:42.193Z,15.10
2019-02-14T22:51:43.995Z,15.68
2019-02-14T22:56:46.794Z,10.32
2019-02-14T23:01:49.630Z,10.63
2019-02-14T23:06:51.185Z,10.13
2019-02-14T23:11:52.870Z,9.08
2019-02-14T23:16:54.256Z,10.40
2019-02-14T23:21:55.851Z,10.88
2019-02-14T23:26:57.274Z,11.15
2019-02-14T23:31:58.781Z,10.32
2019-02-14T23:37:00.399Z,10.03
2019-02-14T23:42:02.089Z,9.60
2019-02-14T23:47:03.417Z,9.63
2019-02-14T23:52:05.009Z,9.43
2019-02-14T23:57:06.498Z,9.90
